Terminal Aerodrome Forecast
Issued by NWS

Home | Current Version | Previous Version | Text Only | Print | Product List | Glossary On
Versions: 1 2 3 4 5 6 7 8 9 10 11 12 13 14 15 16 17 18 19 20 21
000
FTUS46 KOTX 041739
TAFPUW
TAF
KPUW 041739Z 0418/0518 25020G27KT 5SM -RA BR OVC015
     FM042100 27020G28KT P6SM SCT040 BKN060
     FM050000 27015G23KT P6SM SCT070
     FM050300 26011KT P6SM SCT100
     FM051200 23007KT P6SM SCT020
     FM051500 13007KT P6SM SCT025=

USA.gov is the U.S. government's official web portal to all federal, state and local government web resources and services.